Tampa, Florida
Traffic Map
Current Weather Conditions
Tampa, Florida
Scattered Clouds
Scattered Clouds
77°
Feels Like: 79°
Wind Chill: 77° Ceiling: Unl
Heat Index: 79° Visibility: 10mi
Dew Point: 68° Wind: 14mph
Humidity: 74% Direction: 180° (S)
Pressure: 29.88in Gusts: 0mph
Raw Report DataKTPA 231953Z 18012KT 10SM FEW033 SCT280 25/20 A2988 RMK AO2 SLP117 T02500200
Traffic Incident Summary
Active as of:
Severity:
Category:
InformationThere was an issue retrieving the traffic information for this location. Please try a different location or try again shortly.
Advertisements
Track Severe Weather on mobile